Latest Weather Forecast - Saturday 21st November 2020 (6 am)

Forecast Period: 

 6:00 am 21st November 2020 to 12 noon 21st November 2020 

Synopsis:

 Unstable conditions  are across the islands

Forecast:

 Mostly cloudy, slightly hazy and breezy; with light to   moderate rain and pockets of heavy showers       

Weather Advisory:

 Be alert; in areas prone to flash-flooding and land-slides,   or near rivers and streams

Winds:

 E – ENE at 30 – 45 km/h (19 – 28 mph), higher gusts

Sea Conditions:  Moderate in open water; easterly swells (1.8 – 2.5 m),   becoming rough by afternoon

Marine Warning:

 Expect moderate to rough sea-conditions with   occasional gusty winds

Upcoming Tides:
 High: 10:26 am ****
 Low:

****

06:24 pm 

Aviation WX

[Source: ADDS]
METAR
TVSA 232300Z 07009KT 9999 SCT016 SCT032 27/23 Q1012 TEMPO SHRA =
TVSA 232300Z 2400/2424 07008KT 9999 SCT018
TAF
TVSA 232300Z 2400/2424 07008KT 9999 SCT018 =
SR / SS: 10:07 / 21:34 UTC (Sunrise Sunset 2020-11-23)